sensor_id;sensor_type;location;lat;lon;timestamp;temperature;humidity
23079;DHT22;11707;50.830;4.364;2023-06-14T00:00:21;22.20;99.90
23079;DHT22;11707;50.830;4.364;2023-06-14T00:02:48;22.20;99.90
23079;DHT22;11707;50.830;4.364;2023-06-14T00:05:13;22.10;99.90
23079;DHT22;11707;50.830;4.364;2023-06-14T00:07:41;22.10;99.90
23079;DHT22;11707;50.830;4.364;2023-06-14T00:10:13;22.10;99.90
23079;DHT22;11707;50.830;4.364;2023-06-14T00:12:39;22.10;99.90
23079;DHT22;11707;50.830;4.364;2023-06-14T00:15:06;22.10;99.90
23079;DHT22;11707;50.830;4.364;2023-06-14T00:17:32;22.10;99.90
23079;DHT22;11707;50.830;4.364;2023-06-14T00:19:59;22.20;99.90
23079;DHT22;11707;50.830;4.364;2023-06-14T00:22:25;22.10;99.90
23079;DHT22;11707;50.830;4.364;2023-06-14T00:24:56;22.10;99.90
23079;DHT22;11707;50.830;4.364;2023-06-14T00:27:22;22.00;99.90
23079;DHT22;11707;50.830;4.364;2023-06-14T00:29:47;21.90;99.90
23079;DHT22;11707;50.830;4.364;2023-06-14T00:32:13;22.00;99.90
23079;DHT22;11707;50.830;4.364;2023-06-14T00:34:39;21.90;99.90
23079;DHT22;11707;50.830;4.364;2023-06-14T00:37:05;21.80;99.90
23079;DHT22;11707;50.830;4.364;2023-06-14T00:39:30;21.70;1.00
23079;DHT22;11707;50.830;4.364;2023-06-14T00:41:56;21.70;1.00
23079;DHT22;11707;50.830;4.364;2023-06-14T00:44:23;21.70;1.00
23079;DHT22;11707;50.830;4.364;2023-06-14T00:46:51;21.70;1.00
23079;DHT22;11707;50.830;4.364;2023-06-14T00:49:18;21.70;1.00
23079;DHT22;11707;50.830;4.364;2023-06-14T00:51:45;21.60;1.00
23079;DHT22;11707;50.830;4.364;2023-06-14T00:54:10;21.50;1.00
23079;DHT22;11707;50.830;4.364;2023-06-14T00:56:36;21.50;1.00
23079;DHT22;11707;50.830;4.364;2023-06-14T00:59:03;21.60;1.00
23079;DHT22;11707;50.830;4.364;2023-06-14T01:01:30;21.50;1.00
23079;DHT22;11707;50.830;4.364;2023-06-14T01:04:02;21.50;1.00
23079;DHT22;11707;50.830;4.364;2023-06-14T01:12:10;21.40;1.00
23079;DHT22;11707;50.830;4.364;2023-06-14T01:14:41;21.30;1.00
23079;DHT22;11707;50.830;4.364;2023-06-14T01:17:08;21.30;1.00
23079;DHT22;11707;50.830;4.364;2023-06-14T01:19:44;21.40;1.00
23079;DHT22;11707;50.830;4.364;2023-06-14T01:22:11;21.30;1.00
23079;DHT22;11707;50.830;4.364;2023-06-14T01:24:37;21.30;1.00
23079;DHT22;11707;50.830;4.364;2023-06-14T01:27:05;21.40;1.00
23079;DHT22;11707;50.830;4.364;2023-06-14T01:29:32;21.50;1.00
23079;DHT22;11707;50.830;4.364;2023-06-14T01:32:02;21.40;1.00
23079;DHT22;11707;50.830;4.364;2023-06-14T01:34:28;21.30;1.00
23079;DHT22;11707;50.830;4.364;2023-06-14T01:36:54;21.00;1.00
23079;DHT22;11707;50.830;4.364;2023-06-14T01:39:21;21.00;1.00
23079;DHT22;11707;50.830;4.364;2023-06-14T01:41:51;21.20;1.00
23079;DHT22;11707;50.830;4.364;2023-06-14T01:44:17;21.00;1.00
23079;DHT22;11707;50.830;4.364;2023-06-14T01:46:45;21.00;14.20
23079;DHT22;11707;50.830;4.364;2023-06-14T01:49:11;20.90;40.50
23079;DHT22;11707;50.830;4.364;2023-06-14T01:51:37;21.00;51.40
23079;DHT22;11707;50.830;4.364;2023-06-14T01:54:03;21.10;56.30
23079;DHT22;11707;50.830;4.364;2023-06-14T01:56:28;21.10;58.40
23079;DHT22;11707;50.830;4.364;2023-06-14T01:58:54;21.00;69.30
23079;DHT22;11707;50.830;4.364;2023-06-14T02:01:21;20.70;99.90
23079;DHT22;11707;50.830;4.364;2023-06-14T02:03:47;20.70;99.90
23079;DHT22;11707;50.830;4.364;2023-06-14T02:06:14;20.90;99.90
23079;DHT22;11707;50.830;4.364;2023-06-14T02:08:43;20.90;99.90
23079;DHT22;11707;50.830;4.364;2023-06-14T02:11:09;20.80;99.90
23079;DHT22;11707;50.830;4.364;2023-06-14T02:13:35;20.60;99.90
23079;DHT22;11707;50.830;4.364;2023-06-14T02:16:05;20.50;99.90
23079;DHT22;11707;50.830;4.364;2023-06-14T02:18:36;20.50;99.90
23079;DHT22;11707;50.830;4.364;2023-06-14T02:21:02;20.50;99.90
23079;DHT22;11707;50.830;4.364;2023-06-14T02:23:27;20.40;99.90
23079;DHT22;11707;50.830;4.364;2023-06-14T02:25:55;20.50;99.90
23079;DHT22;11707;50.830;4.364;2023-06-14T02:28:21;20.40;99.90
23079;DHT22;11707;50.830;4.364;2023-06-14T02:30:49;20.20;99.90
23079;DHT22;11707;50.830;4.364;2023-06-14T02:33:17;20.20;99.90
23079;DHT22;11707;50.830;4.364;2023-06-14T02:35:43;20.20;99.90
23079;DHT22;11707;50.830;4.364;2023-06-14T02:38:09;20.20;99.90
23079;DHT22;11707;50.830;4.364;2023-06-14T02:40:35;20.10;99.90
23079;DHT22;11707;50.830;4.364;2023-06-14T02:43:03;20.20;99.90
23079;DHT22;11707;50.830;4.364;2023-06-14T02:45:29;20.10;99.90
23079;DHT22;11707;50.830;4.364;2023-06-14T02:47:54;20.00;99.90
23079;DHT22;11707;50.830;4.364;2023-06-14T02:50:21;19.90;1.00
23079;DHT22;11707;50.830;4.364;2023-06-14T02:52:49;19.90;1.00
23079;DHT22;11707;50.830;4.364;2023-06-14T02:55:14;19.90;1.00
23079;DHT22;11707;50.830;4.364;2023-06-14T02:57:40;20.00;1.00
23079;DHT22;11707;50.830;4.364;2023-06-14T03:00:06;20.00;1.00
23079;DHT22;11707;50.830;4.364;2023-06-14T03:02:35;19.90;1.00
23079;DHT22;11707;50.830;4.364;2023-06-14T03:05:01;19.90;1.00
23079;DHT22;11707;50.830;4.364;2023-06-14T03:07:28;19.90;1.00
23079;DHT22;11707;50.830;4.364;2023-06-14T03:09:55;19.80;1.00
23079;DHT22;11707;50.830;4.364;2023-06-14T03:12:20;19.70;8.40
23079;DHT22;11707;50.830;4.364;2023-06-14T03:14:49;19.60;95.70
23079;DHT22;11707;50.830;4.364;2023-06-14T03:17:16;19.60;99.90
23079;DHT22;11707;50.830;4.364;2023-06-14T03:19:43;19.60;99.90
23079;DHT22;11707;50.830;4.364;2023-06-14T03:22:09;19.50;99.90
23079;DHT22;11707;50.830;4.364;2023-06-14T03:24:37;19.40;99.90
23079;DHT22;11707;50.830;4.364;2023-06-14T03:27:03;19.40;99.90
23079;DHT22;11707;50.830;4.364;2023-06-14T03:29:29;19.40;99.90
23079;DHT22;11707;50.830;4.364;2023-06-14T03:32:02;19.40;99.90
23079;DHT22;11707;50.830;4.364;2023-06-14T03:34:28;19.30;99.90
23079;DHT22;11707;50.830;4.364;2023-06-14T03:36:54;19.40;99.90
23079;DHT22;11707;50.830;4.364;2023-06-14T03:39:22;19.30;99.90
23079;DHT22;11707;50.830;4.364;2023-06-14T03:41:48;19.20;1.00
23079;DHT22;11707;50.830;4.364;2023-06-14T03:44:17;19.30;1.00
23079;DHT22;11707;50.830;4.364;2023-06-14T03:46:46;19.20;1.00
23079;DHT22;11707;50.830;4.364;2023-06-14T03:49:12;19.10;1.00
23079;DHT22;11707;50.830;4.364;2023-06-14T03:51:38;19.10;1.00
23079;DHT22;11707;50.830;4.364;2023-06-14T03:54:05;19.20;1.00
23079;DHT22;11707;50.830;4.364;2023-06-14T03:56:32;19.10;1.00
23079;DHT22;11707;50.830;4.364;2023-06-14T03:58:57;19.00;1.00
23079;DHT22;11707;50.830;4.364;2023-06-14T04:01:25;19.10;1.00
23079;DHT22;11707;50.830;4.364;2023-06-14T04:03:55;19.10;1.00
23079;DHT22;11707;50.830;4.364;2023-06-14T04:06:21;19.00;1.00
23079;DHT22;11707;50.830;4.364;2023-06-14T04:08:47;18.80;99.90
23079;DHT22;11707;50.830;4.364;2023-06-14T04:11:17;18.70;99.90
23079;DHT22;11707;50.830;4.364;2023-06-14T04:13:44;18.60;1.00
23079;DHT22;11707;50.830;4.364;2023-06-14T04:16:09;18.70;99.90
23079;DHT22;11707;50.830;4.364;2023-06-14T04:18:37;18.70;99.90
23079;DHT22;11707;50.830;4.364;2023-06-14T04:21:03;18.50;1.00
23079;DHT22;11707;50.830;4.364;2023-06-14T04:23:29;18.50;1.00
23079;DHT22;11707;50.830;4.364;2023-06-14T04:25:55;18.50;80.60
23079;DHT22;11707;50.830;4.364;2023-06-14T04:28:27;18.60;54.30
23079;DHT22;11707;50.830;4.364;2023-06-14T04:30:53;18.60;6.20
23079;DHT22;11707;50.830;4.364;2023-06-14T04:33:19;18.70;1.00
23079;DHT22;11707;50.830;4.364;2023-06-14T04:35:45;18.80;99.90
23079;DHT22;11707;50.830;4.364;2023-06-14T04:38:12;18.70;99.90
23079;DHT22;11707;50.830;4.364;2023-06-14T04:40:41;18.70;99.90
23079;DHT22;11707;50.830;4.364;2023-06-14T04:43:15;18.70;99.90
23079;DHT22;11707;50.830;4.364;2023-06-14T04:45:42;18.70;99.90
23079;DHT22;11707;50.830;4.364;2023-06-14T04:48:12;18.80;99.90
23079;DHT22;11707;50.830;4.364;2023-06-14T04:50:37;18.80;99.90
23079;DHT22;11707;50.830;4.364;2023-06-14T04:53:05;19.00;99.90
23079;DHT22;11707;50.830;4.364;2023-06-14T04:55:32;19.00;99.90
23079;DHT22;11707;50.830;4.364;2023-06-14T04:57:58;19.10;99.90
23079;DHT22;11707;50.830;4.364;2023-06-14T05:00:25;19.10;99.90
23079;DHT22;11707;50.830;4.364;2023-06-14T05:02:51;18.90;99.90
23079;DHT22;11707;50.830;4.364;2023-06-14T05:05:21;18.90;99.90
23079;DHT22;11707;50.830;4.364;2023-06-14T05:07:46;18.90;99.90
23079;DHT22;11707;50.830;4.364;2023-06-14T05:10:12;19.00;99.90
23079;DHT22;11707;50.830;4.364;2023-06-14T05:12:40;19.00;99.90
23079;DHT22;11707;50.830;4.364;2023-06-14T05:15:09;19.10;99.90
23079;DHT22;11707;50.830;4.364;2023-06-14T05:17:37;19.10;99.90
23079;DHT22;11707;50.830;4.364;2023-06-14T05:20:06;19.10;99.90
23079;DHT22;11707;50.830;4.364;2023-06-14T05:22:34;19.30;42.60
23079;DHT22;11707;50.830;4.364;2023-06-14T05:25:00;19.10;37.50
23079;DHT22;11707;50.830;4.364;2023-06-14T05:27:28;19.20;99.90
23079;DHT22;11707;50.830;4.364;2023-06-14T05:29:54;19.30;75.00
23079;DHT22;11707;50.830;4.364;2023-06-14T05:32:24;19.30;1.00
23079;DHT22;11707;50.830;4.364;2023-06-14T05:34:49;19.30;1.00
23079;DHT22;11707;50.830;4.364;2023-06-14T05:37:15;19.50;1.00
23079;DHT22;11707;50.830;4.364;2023-06-14T05:39:44;19.50;1.00
23079;DHT22;11707;50.830;4.364;2023-06-14T05:42:10;19.60;1.00
23079;DHT22;11707;50.830;4.364;2023-06-14T05:44:36;19.50;1.00
23079;DHT22;11707;50.830;4.364;2023-06-14T05:47:02;19.50;99.90
23079;DHT22;11707;50.830;4.364;2023-06-14T05:49:27;19.60;99.90
23079;DHT22;11707;50.830;4.364;2023-06-14T05:51:53;19.70;99.90
23079;DHT22;11707;50.830;4.364;2023-06-14T05:54:19;19.80;99.90
23079;DHT22;11707;50.830;4.364;2023-06-14T05:56:47;19.90;99.90
23079;DHT22;11707;50.830;4.364;2023-06-14T05:59:13;19.90;99.90
23079;DHT22;11707;50.830;4.364;2023-06-14T06:01:38;19.90;99.90
23079;DHT22;11707;50.830;4.364;2023-06-14T06:04:05;20.10;99.90
23079;DHT22;11707;50.830;4.364;2023-06-14T06:06:31;20.20;99.90
23079;DHT22;11707;50.830;4.364;2023-06-14T06:08:58;20.20;99.90
23079;DHT22;11707;50.830;4.364;2023-06-14T06:11:23;20.40;99.90
23079;DHT22;11707;50.830;4.364;2023-06-14T06:13:49;20.50;99.90
23079;DHT22;11707;50.830;4.364;2023-06-14T06:16:16;20.50;99.90
23079;DHT22;11707;50.830;4.364;2023-06-14T06:18:41;20.70;99.90
23079;DHT22;11707;50.830;4.364;2023-06-14T06:21:07;20.70;99.90
23079;DHT22;11707;50.830;4.364;2023-06-14T06:23:33;20.60;99.90
23079;DHT22;11707;50.830;4.364;2023-06-14T06:25:58;20.70;99.90
23079;DHT22;11707;50.830;4.364;2023-06-14T06:28:24;20.90;99.90
23079;DHT22;11707;50.830;4.364;2023-06-14T06:30:50;21.00;99.90
23079;DHT22;11707;50.830;4.364;2023-06-14T06:33:16;21.20;85.20
23079;DHT22;11707;50.830;4.364;2023-06-14T06:35:41;21.10;17.30
23079;DHT22;11707;50.830;4.364;2023-06-14T06:38:08;21.10;14.10
23079;DHT22;11707;50.830;4.364;2023-06-14T06:40:35;21.10;44.40
23079;DHT22;11707;50.830;4.364;2023-06-14T06:43:02;21.40;46.50
23079;DHT22;11707;50.830;4.364;2023-06-14T06:45:28;21.30;1.00
23079;DHT22;11707;50.830;4.364;2023-06-14T06:47:54;21.40;1.00
23079;DHT22;11707;50.830;4.364;2023-06-14T06:50:21;21.60;1.00
23079;DHT22;11707;50.830;4.364;2023-06-14T06:52:53;21.60;1.00
23079;DHT22;11707;50.830;4.364;2023-06-14T06:55:18;21.60;1.00
23079;DHT22;11707;50.830;4.364;2023-06-14T06:57:47;21.80;1.00
23079;DHT22;11707;50.830;4.364;2023-06-14T07:00:18;21.60;1.00
23079;DHT22;11707;50.830;4.364;2023-06-14T07:02:43;21.60;1.00
23079;DHT22;11707;50.830;4.364;2023-06-14T07:05:09;21.80;1.00
23079;DHT22;11707;50.830;4.364;2023-06-14T07:07:35;21.80;1.00
23079;DHT22;11707;50.830;4.364;2023-06-14T07:10:01;21.80;1.00
23079;DHT22;11707;50.830;4.364;2023-06-14T07:12:30;22.10;1.00
23079;DHT22;11707;50.830;4.364;2023-06-14T07:14:57;22.30;1.00
23079;DHT22;11707;50.830;4.364;2023-06-14T07:17:25;22.20;99.90
23079;DHT22;11707;50.830;4.364;2023-06-14T07:19:51;22.30;99.90
23079;DHT22;11707;50.830;4.364;2023-06-14T07:22:17;22.30;99.90
23079;DHT22;11707;50.830;4.364;2023-06-14T07:24:43;22.50;99.90
23079;DHT22;11707;50.830;4.364;2023-06-14T07:27:09;22.40;99.90
23079;DHT22;11707;50.830;4.364;2023-06-14T07:29:35;22.50;99.90
23079;DHT22;11707;50.830;4.364;2023-06-14T07:32:01;22.80;99.90
23079;DHT22;11707;50.830;4.364;2023-06-14T07:34:27;23.10;99.90
23079;DHT22;11707;50.830;4.364;2023-06-14T07:36:55;23.10;99.90
23079;DHT22;11707;50.830;4.364;2023-06-14T07:39:21;23.30;99.90
23079;DHT22;11707;50.830;4.364;2023-06-14T07:41:47;23.40;99.90
23079;DHT22;11707;50.830;4.364;2023-06-14T07:44:13;23.50;99.90
23079;DHT22;11707;50.830;4.364;2023-06-14T07:46:41;23.60;99.90
23079;DHT22;11707;50.830;4.364;2023-06-14T07:49:07;23.60;99.90
23079;DHT22;11707;50.830;4.364;2023-06-14T07:51:33;23.50;99.90
23079;DHT22;11707;50.830;4.364;2023-06-14T07:53:59;23.70;99.90
23079;DHT22;11707;50.830;4.364;2023-06-14T07:56:28;23.90;99.90
23079;DHT22;11707;50.830;4.364;2023-06-14T07:58:54;23.90;99.90
23079;DHT22;11707;50.830;4.364;2023-06-14T08:01:20;24.00;99.90
23079;DHT22;11707;50.830;4.364;2023-06-14T08:03:46;24.20;99.90
23079;DHT22;11707;50.830;4.364;2023-06-14T08:06:15;24.30;99.90
23079;DHT22;11707;50.830;4.364;2023-06-14T08:08:43;24.50;99.90
23079;DHT22;11707;50.830;4.364;2023-06-14T08:11:08;24.50;99.90
23079;DHT22;11707;50.830;4.364;2023-06-14T08:13:34;24.60;96.50
23079;DHT22;11707;50.830;4.364;2023-06-14T08:16:00;24.80;62.00
23079;DHT22;11707;50.830;4.364;2023-06-14T08:18:26;24.70;46.90
23079;DHT22;11707;50.830;4.364;2023-06-14T08:20:52;24.80;44.70
23079;DHT22;11707;50.830;4.364;2023-06-14T08:23:19;24.80;27.70
23079;DHT22;11707;50.830;4.364;2023-06-14T08:25:46;24.60;26.50
23079;DHT22;11707;50.830;4.364;2023-06-14T08:28:12;24.80;20.30
23079;DHT22;11707;50.830;4.364;2023-06-14T08:30:38;24.80;18.10
23079;DHT22;11707;50.830;4.364;2023-06-14T08:33:03;25.00;14.10
23079;DHT22;11707;50.830;4.364;2023-06-14T08:35:29;25.10;16.60
23079;DHT22;11707;50.830;4.364;2023-06-14T08:37:55;25.20;1.30
23079;DHT22;11707;50.830;4.364;2023-06-14T08:40:22;25.30;5.10
23079;DHT22;11707;50.830;4.364;2023-06-14T08:42:52;25.30;1.00
23079;DHT22;11707;50.830;4.364;2023-06-14T08:45:20;25.40;1.00
23079;DHT22;11707;50.830;4.364;2023-06-14T08:47:47;25.40;1.00
23079;DHT22;11707;50.830;4.364;2023-06-14T08:50:22;25.30;1.00
23079;DHT22;11707;50.830;4.364;2023-06-14T08:52:54;25.30;1.00
23079;DHT22;11707;50.830;4.364;2023-06-14T08:55:22;25.30;1.00
23079;DHT22;11707;50.830;4.364;2023-06-14T08:57:51;25.20;1.00
23079;DHT22;11707;50.830;4.364;2023-06-14T09:00:19;24.90;1.00
23079;DHT22;11707;50.830;4.364;2023-06-14T09:02:48;24.90;1.00
23079;DHT22;11707;50.830;4.364;2023-06-14T09:05:13;25.00;1.00
23079;DHT22;11707;50.830;4.364;2023-06-14T09:07:42;25.00;1.00
23079;DHT22;11707;50.830;4.364;2023-06-14T09:10:13;25.00;1.00
23079;DHT22;11707;50.830;4.364;2023-06-14T09:12:39;25.20;1.00
23079;DHT22;11707;50.830;4.364;2023-06-14T09:15:06;25.40;1.00
23079;DHT22;11707;50.830;4.364;2023-06-14T09:17:40;25.20;1.00
23079;DHT22;11707;50.830;4.364;2023-06-14T09:20:07;25.40;1.00
23079;DHT22;11707;50.830;4.364;2023-06-14T09:22:39;25.50;1.00
23079;DHT22;11707;50.830;4.364;2023-06-14T09:25:08;25.50;1.00
23079;DHT22;11707;50.830;4.364;2023-06-14T09:27:34;25.10;1.00
23079;DHT22;11707;50.830;4.364;2023-06-14T09:30:02;25.00;1.00
23079;DHT22;11707;50.830;4.364;2023-06-14T09:32:30;25.00;8.30
23079;DHT22;11707;50.830;4.364;2023-06-14T09:34:56;25.10;1.00
23079;DHT22;11707;50.830;4.364;2023-06-14T09:37:32;25.00;1.00
23079;DHT22;11707;50.830;4.364;2023-06-14T09:39:58;25.00;1.00
23079;DHT22;11707;50.830;4.364;2023-06-14T09:42:25;24.90;1.00
23079;DHT22;11707;50.830;4.364;2023-06-14T09:44:55;25.00;1.00
23079;DHT22;11707;50.830;4.364;2023-06-14T09:47:26;25.20;1.00
23079;DHT22;11707;50.830;4.364;2023-06-14T09:49:52;25.50;1.00
23079;DHT22;11707;50.830;4.364;2023-06-14T09:52:21;25.30;1.00
23079;DHT22;11707;50.830;4.364;2023-06-14T09:54:47;25.30;1.00
23079;DHT22;11707;50.830;4.364;2023-06-14T09:57:25;25.10;1.00
23079;DHT22;11707;50.830;4.364;2023-06-14T09:59:56;25.40;1.00
23079;DHT22;11707;50.830;4.364;2023-06-14T10:02:28;25.60;1.00
23079;DHT22;11707;50.830;4.364;2023-06-14T10:05:05;25.70;1.00
23079;DHT22;11707;50.830;4.364;2023-06-14T10:08:20;25.60;1.00
23079;DHT22;11707;50.830;4.364;2023-06-14T10:10:20;25.40;1.00
23079;DHT22;11707;50.830;4.364;2023-06-14T10:12:46;25.70;1.00
23079;DHT22;11707;50.830;4.364;2023-06-14T10:15:19;25.80;1.00
23079;DHT22;11707;50.830;4.364;2023-06-14T10:17:51;25.90;1.00
23079;DHT22;11707;50.830;4.364;2023-06-14T10:20:42;26.00;1.00
23079;DHT22;11707;50.830;4.364;2023-06-14T10:23:19;26.20;1.00
23079;DHT22;11707;50.830;4.364;2023-06-14T10:25:50;26.00;1.00
23079;DHT22;11707;50.830;4.364;2023-06-14T10:28:18;26.20;1.00
23079;DHT22;11707;50.830;4.364;2023-06-14T10:31:20;26.00;1.00
23079;DHT22;11707;50.830;4.364;2023-06-14T10:33:52;26.00;1.00
23079;DHT22;11707;50.830;4.364;2023-06-14T10:36:30;25.80;1.00
23079;DHT22;11707;50.830;4.364;2023-06-14T10:39:08;26.00;1.00
23079;DHT22;11707;50.830;4.364;2023-06-14T10:41:37;25.70;99.90
23079;DHT22;11707;50.830;4.364;2023-06-14T10:46:49;25.50;1.00
23079;DHT22;11707;50.830;4.364;2023-06-14T10:49:38;25.90;1.00
23079;DHT22;11707;50.830;4.364;2023-06-14T10:52:08;25.80;99.90
23079;DHT22;11707;50.830;4.364;2023-06-14T10:54:37;25.90;99.90
23079;DHT22;11707;50.830;4.364;2023-06-14T10:57:06;26.00;99.90
23079;DHT22;11707;50.830;4.364;2023-06-14T10:59:36;26.10;99.90
23079;DHT22;11707;50.830;4.364;2023-06-14T11:04:48;26.30;99.90
23079;DHT22;11707;50.830;4.364;2023-06-14T11:12:41;26.90;99.90
23079;DHT22;11707;50.830;4.364;2023-06-14T11:15:14;26.70;99.90
23079;DHT22;11707;50.830;4.364;2023-06-14T11:17:52;26.50;99.90
23079;DHT22;11707;50.830;4.364;2023-06-14T11:20:25;26.50;99.90
23079;DHT22;11707;50.830;4.364;2023-06-14T11:22:51;26.50;99.90
23079;DHT22;11707;50.830;4.364;2023-06-14T11:25:17;26.20;99.90
23079;DHT22;11707;50.830;4.364;2023-06-14T11:27:44;26.20;99.90
23079;DHT22;11707;50.830;4.364;2023-06-14T11:30:11;26.50;99.90
23079;DHT22;11707;50.830;4.364;2023-06-14T11:32:37;26.60;99.90
23079;DHT22;11707;50.830;4.364;2023-06-14T11:35:04;26.80;99.90
23079;DHT22;11707;50.830;4.364;2023-06-14T11:37:33;26.90;99.90
23079;DHT22;11707;50.830;4.364;2023-06-14T11:39:59;27.00;99.90
23079;DHT22;11707;50.830;4.364;2023-06-14T11:42:28;26.70;99.90
23079;DHT22;11707;50.830;4.364;2023-06-14T11:44:55;26.60;99.90
23079;DHT22;11707;50.830;4.364;2023-06-14T11:47:22;26.70;99.90
23079;DHT22;11707;50.830;4.364;2023-06-14T11:49:47;26.80;99.90
23079;DHT22;11707;50.830;4.364;2023-06-14T11:52:14;26.90;99.90
23079;DHT22;11707;50.830;4.364;2023-06-14T11:54:40;26.80;99.90
23079;DHT22;11707;50.830;4.364;2023-06-14T11:57:07;26.80;99.90
23079;DHT22;11707;50.830;4.364;2023-06-14T11:59:40;26.80;99.90
23079;DHT22;11707;50.830;4.364;2023-06-14T12:02:07;26.90;99.90
23079;DHT22;11707;50.830;4.364;2023-06-14T12:04:33;26.70;99.90
23079;DHT22;11707;50.830;4.364;2023-06-14T12:07:15;26.70;99.90
23079;DHT22;11707;50.830;4.364;2023-06-14T12:10:03;26.70;99.90
23079;DHT22;11707;50.830;4.364;2023-06-14T12:12:38;26.50;99.90
23079;DHT22;11707;50.830;4.364;2023-06-14T12:15:05;26.70;99.90
23079;DHT22;11707;50.830;4.364;2023-06-14T12:17:33;26.70;99.90
23079;DHT22;11707;50.830;4.364;2023-06-14T12:20:05;26.50;99.90
23079;DHT22;11707;50.830;4.364;2023-06-14T12:22:34;26.40;99.90
23079;DHT22;11707;50.830;4.364;2023-06-14T12:25:00;26.30;99.90
23079;DHT22;11707;50.830;4.364;2023-06-14T12:27:26;26.40;99.90
23079;DHT22;11707;50.830;4.364;2023-06-14T12:30:03;26.60;99.90
23079;DHT22;11707;50.830;4.364;2023-06-14T12:32:30;26.50;99.90
23079;DHT22;11707;50.830;4.364;2023-06-14T12:34:56;26.80;99.90
23079;DHT22;11707;50.830;4.364;2023-06-14T12:37:21;26.90;99.90
23079;DHT22;11707;50.830;4.364;2023-06-14T12:39:47;26.90;99.90
23079;DHT22;11707;50.830;4.364;2023-06-14T12:42:13;27.10;99.90
23079;DHT22;11707;50.830;4.364;2023-06-14T12:44:42;27.20;99.90
23079;DHT22;11707;50.830;4.364;2023-06-14T12:47:08;27.10;99.90
23079;DHT22;11707;50.830;4.364;2023-06-14T12:49:33;27.20;99.90
23079;DHT22;11707;50.830;4.364;2023-06-14T12:51:59;27.30;99.90
23079;DHT22;11707;50.830;4.364;2023-06-14T12:54:25;27.40;99.90
23079;DHT22;11707;50.830;4.364;2023-06-14T12:56:51;27.90;99.90
23079;DHT22;11707;50.830;4.364;2023-06-14T12:59:17;29.30;99.90
23079;DHT22;11707;50.830;4.364;2023-06-14T13:01:43;30.40;99.90
23079;DHT22;11707;50.830;4.364;2023-06-14T13:04:12;31.40;99.90
23079;DHT22;11707;50.830;4.364;2023-06-14T13:06:43;32.20;99.90
23079;DHT22;11707;50.830;4.364;2023-06-14T13:09:09;32.70;99.90
23079;DHT22;11707;50.830;4.364;2023-06-14T13:11:35;32.80;99.90
23079;DHT22;11707;50.830;4.364;2023-06-14T13:14:05;32.30;99.90
23079;DHT22;11707;50.830;4.364;2023-06-14T13:16:31;31.80;99.90
23079;DHT22;11707;50.830;4.364;2023-06-14T13:18:57;31.90;99.90
23079;DHT22;11707;50.830;4.364;2023-06-14T13:21:23;32.30;99.90
23079;DHT22;11707;50.830;4.364;2023-06-14T13:23:48;33.00;99.90
23079;DHT22;11707;50.830;4.364;2023-06-14T13:26:17;32.00;99.90
23079;DHT22;11707;50.830;4.364;2023-06-14T13:28:45;32.20;99.90
23079;DHT22;11707;50.830;4.364;2023-06-14T13:31:11;33.30;99.90
23079;DHT22;11707;50.830;4.364;2023-06-14T13:33:39;33.80;99.90
23079;DHT22;11707;50.830;4.364;2023-06-14T13:36:07;34.40;99.90
23079;DHT22;11707;50.830;4.364;2023-06-14T13:38:33;34.80;99.90
23079;DHT22;11707;50.830;4.364;2023-06-14T13:40:59;34.30;99.90
23079;DHT22;11707;50.830;4.364;2023-06-14T13:43:24;33.80;99.90
23079;DHT22;11707;50.830;4.364;2023-06-14T13:45:50;33.50;99.90
23079;DHT22;11707;50.830;4.364;2023-06-14T13:48:15;33.90;99.90
23079;DHT22;11707;50.830;4.364;2023-06-14T13:50:44;34.40;99.90
23079;DHT22;11707;50.830;4.364;2023-06-14T13:53:11;34.00;99.90
23079;DHT22;11707;50.830;4.364;2023-06-14T13:55:41;35.30;99.90
23079;DHT22;11707;50.830;4.364;2023-06-14T13:58:09;35.90;99.90
23079;DHT22;11707;50.830;4.364;2023-06-14T14:00:37;36.20;99.90
23079;DHT22;11707;50.830;4.364;2023-06-14T14:03:08;35.50;99.90
23079;DHT22;11707;50.830;4.364;2023-06-14T14:05:34;35.80;99.90
23079;DHT22;11707;50.830;4.364;2023-06-14T14:08:02;36.30;99.90
23079;DHT22;11707;50.830;4.364;2023-06-14T14:10:29;36.60;99.90
23079;DHT22;11707;50.830;4.364;2023-06-14T14:12:55;36.40;99.90
23079;DHT22;11707;50.830;4.364;2023-06-14T14:15:20;35.20;99.90
23079;DHT22;11707;50.830;4.364;2023-06-14T14:17:48;35.00;99.90
23079;DHT22;11707;50.830;4.364;2023-06-14T14:20:14;34.90;99.90
23079;DHT22;11707;50.830;4.364;2023-06-14T14:22:46;33.00;99.90
23079;DHT22;11707;50.830;4.364;2023-06-14T14:25:12;32.50;99.90
23079;DHT22;11707;50.830;4.364;2023-06-14T14:27:37;32.50;99.90
23079;DHT22;11707;50.830;4.364;2023-06-14T14:30:06;34.10;99.90
23079;DHT22;11707;50.830;4.364;2023-06-14T14:32:32;34.80;99.90
23079;DHT22;11707;50.830;4.364;2023-06-14T14:34:58;34.80;99.90
23079;DHT22;11707;50.830;4.364;2023-06-14T14:37:24;34.60;99.90
23079;DHT22;11707;50.830;4.364;2023-06-14T14:39:50;34.00;99.90
23079;DHT22;11707;50.830;4.364;2023-06-14T14:42:15;35.20;99.90
23079;DHT22;11707;50.830;4.364;2023-06-14T14:44:41;34.60;99.90
23079;DHT22;11707;50.830;4.364;2023-06-14T14:47:09;34.40;99.90
23079;DHT22;11707;50.830;4.364;2023-06-14T14:49:35;34.90;99.90
23079;DHT22;11707;50.830;4.364;2023-06-14T14:52:03;35.40;99.90
23079;DHT22;11707;50.830;4.364;2023-06-14T14:54:29;34.60;99.90
23079;DHT22;11707;50.830;4.364;2023-06-14T14:56:55;33.90;99.90
23079;DHT22;11707;50.830;4.364;2023-06-14T14:59:23;33.80;99.90
23079;DHT22;11707;50.830;4.364;2023-06-14T15:01:49;33.40;99.90
23079;DHT22;11707;50.830;4.364;2023-06-14T15:04:16;34.40;99.90
23079;DHT22;11707;50.830;4.364;2023-06-14T15:06:41;34.50;99.90
23079;DHT22;11707;50.830;4.364;2023-06-14T15:09:09;33.80;99.90
23079;DHT22;11707;50.830;4.364;2023-06-14T15:11:35;34.90;99.90
23079;DHT22;11707;50.830;4.364;2023-06-14T15:14:03;34.30;99.90
23079;DHT22;11707;50.830;4.364;2023-06-14T15:16:29;34.60;99.90
23079;DHT22;11707;50.830;4.364;2023-06-14T15:18:55;34.10;99.90
23079;DHT22;11707;50.830;4.364;2023-06-14T15:21:20;33.30;99.90
23079;DHT22;11707;50.830;4.364;2023-06-14T15:23:48;33.70;99.90
23079;DHT22;11707;50.830;4.364;2023-06-14T15:26:13;33.40;99.90
23079;DHT22;11707;50.830;4.364;2023-06-14T15:28:39;33.60;99.90
23079;DHT22;11707;50.830;4.364;2023-06-14T15:31:05;33.20;99.90
23079;DHT22;11707;50.830;4.364;2023-06-14T15:33:30;31.30;99.90
23079;DHT22;11707;50.830;4.364;2023-06-14T15:35:57;30.20;99.90
23079;DHT22;11707;50.830;4.364;2023-06-14T15:38:25;29.50;99.90
23079;DHT22;11707;50.830;4.364;2023-06-14T15:40:51;29.20;99.90
23079;DHT22;11707;50.830;4.364;2023-06-14T15:43:16;28.30;99.90
23079;DHT22;11707;50.830;4.364;2023-06-14T15:45:47;28.20;99.90
23079;DHT22;11707;50.830;4.364;2023-06-14T15:48:13;27.80;99.90
23079;DHT22;11707;50.830;4.364;2023-06-14T15:50:41;27.90;99.90
23079;DHT22;11707;50.830;4.364;2023-06-14T15:53:07;28.00;99.90